Time;durP1;ratioP1;P1;durP2;ratioP2;P2;SDS_P1;SDS_P2;PMS_P1;PMS_P2;Temp;Humidity;BMP_temperature;BMP_pressure;BME280_temperature;BME280_humidity;BME280_pressure;Samples;Min_cycle;Max_cycle;Signal;HPM_P1;HPM_P2
2023/03/30 00:00:57;;;;;;;15.90;6.00;;;;;;;15.89;60.58;98770.56;5073865;28;20107;-49
2023/03/30 00:03:26;;;;;;;19.58;7.78;;;;;;;15.72;61.50;98778.38;5073858;28;20552;-49
2023/03/30 00:05:55;;;;;;;15.82;5.68;;;;;;;15.77;61.92;98766.13;5074365;28;20081;-49
2023/03/30 00:08:27;;;;;;;17.45;5.68;;;;;;;15.85;61.36;98780.81;5091957;28;20024;-49
2023/03/30 00:11:04;;;;;;;19.40;6.57;;;;;;;15.73;61.70;98757.00;5091884;28;20024;-49
2023/03/30 00:13:31;;;;;;;18.70;6.72;;;;;;;15.70;61.73;98781.25;5091966;28;20031;-49
2023/03/30 00:15:57;;;;;;;11.82;5.78;;;;;;;15.81;61.66;98770.94;5091890;28;20545;-49
2023/03/30 00:18:23;;;;;;;19.83;6.78;;;;;;;15.87;61.10;98760.22;5091832;28;20030;-49
2023/03/30 00:20:50;;;;;;;13.30;7.05;;;;;;;16.02;60.65;98759.72;5091741;28;20030;-49
2023/03/30 00:23:17;;;;;;;18.25;6.25;;;;;;;15.93;60.46;98753.19;5091852;28;20055;-49
2023/03/30 00:25:42;;;;;;;13.52;5.38;;;;;;;15.81;60.81;98757.69;5057088;28;20107;-49
2023/03/30 00:28:08;;;;;;;15.40;6.13;;;;;;;15.57;61.83;98744.44;5073585;28;20120;-49
2023/03/30 00:30:35;;;;;;;17.85;6.20;;;;;;;15.65;61.79;98756.53;5091700;28;20508;-49
2023/03/30 00:33:02;;;;;;;14.48;5.82;;;;;;;15.67;61.53;98735.94;5091673;28;20020;-49
2023/03/30 00:35:29;;;;;;;17.65;6.40;;;;;;;15.64;62.15;98742.50;5073416;28;20028;-49
2023/03/30 00:38:02;;;;;;;19.50;5.90;;;;;;;15.77;61.51;98730.88;5091699;28;20166;-49
2023/03/30 00:40:30;;;;;;;20.65;6.03;;;;;;;15.71;61.01;98729.94;5073567;28;20068;-48
2023/03/30 00:43:01;;;;;;;12.77;4.88;;;;;;;15.64;61.25;98726.63;5073865;28;20107;-49
2023/03/30 00:45:32;;;;;;;12.98;4.63;;;;;;;15.47;61.80;98721.22;5091603;28;20497;-49
2023/03/30 00:48:08;;;;;;;17.10;6.40;;;;;;;15.46;62.14;98669.38;5073418;28;20037;-49
2023/03/30 00:50:42;;;;;;;16.70;5.00;;;;;;;15.38;61.94;98715.47;5074594;28;20028;-49
2023/03/30 00:53:16;;;;;;;18.10;5.65;;;;;;;15.32;62.42;98697.91;5095578;28;20055;-49
2023/03/30 00:55:45;;;;;;;12.88;5.05;;;;;;;15.27;62.34;98681.09;5077130;28;20116;-49
2023/03/30 00:58:14;;;;;;;11.93;4.63;;;;;;;15.24;62.40;98703.53;5077181;28;20078;-49
2023/03/30 01:00:42;;;;;;;14.25;5.55;;;;;;;15.16;62.55;98678.25;5077128;28;20442;-49
2023/03/30 01:03:21;;;;;;;15.55;4.80;;;;;;;15.06;62.94;98680.66;5095306;28;20570;-49
2023/03/30 01:05:48;;;;;;;15.00;5.15;;;;;;;14.89;64.26;98683.19;5095395;28;20466;-48
2023/03/30 01:08:15;;;;;;;15.05;5.32;;;;;;;14.91;65.09;98696.97;5095185;28;20027;-49
2023/03/30 01:10:42;;;;;;;18.25;5.75;;;;;;;14.97;64.25;98668.84;5095139;28;20030;-48
2023/03/30 01:13:09;;;;;;;16.20;4.75;;;;;;;15.07;63.42;98678.81;5076901;28;20029;-48
2023/03/30 01:15:41;;;;;;;11.52;4.93;;;;;;;15.09;64.15;98679.38;5076845;28;20024;-49
2023/03/30 01:18:35;;;;;;;18.02;5.40;;;;;;;15.26;63.59;98669.75;5095035;28;20439;-49
2023/03/30 01:21:31;;;;;;;10.13;4.03;;;;;;;15.34;61.93;98668.59;5076707;28;20512;-49
2023/03/30 01:24:14;;;;;;;;;;;;;;;15.21;62.29;98672.25;5095394;28;20039;-49
2023/03/30 01:26:55;;;;;;;10.98;4.72;;;;;;;15.13;62.44;98668.16;5094928;28;20009;-49
2023/03/30 01:29:24;;;;;;;14.20;5.20;;;;;;;15.04;63.13;98676.66;5076560;28;20479;-50
2023/03/30 01:32:14;;;;;;;18.48;5.20;;;;;;;15.02;62.71;98652.28;5076556;28;20489;-49
2023/03/30 01:34:48;;;;;;;12.50;4.75;;;;;;;14.86;63.04;98670.41;5094973;28;20507;-48
2023/03/30 01:37:42;;;;;;;12.02;4.43;;;;;;;14.85;63.33;98675.91;5094700;28;20024;-49
2023/03/30 01:40:17;;;;;;;12.27;4.95;;;;;;;14.93;63.35;98675.59;5076439;28;20071;-49
2023/03/30 01:43:02;;;;;;;13.35;4.28;;;;;;;15.15;62.91;98679.28;5094583;28;20032;-49
2023/03/30 01:45:36;;;;;;;18.80;5.47;;;;;;;15.18;63.07;98678.03;5094873;28;20076;-49
2023/03/30 01:48:12;;;;;;;11.98;4.20;;;;;;;15.13;62.00;98660.22;5094520;28;20028;-49
2023/03/30 01:50:44;;;;;;;15.93;3.75;;;;;;;15.12;61.89;98649.88;5094416;28;20028;-49
2023/03/30 01:53:23;;;;;;;10.38;4.05;;;;;;;15.13;63.02;98677.88;5076365;28;20020;-49
2023/03/30 01:55:55;;;;;;;15.40;3.92;;;;;;;15.16;61.80;98657.09;5094132;28;20047;-48
2023/03/30 01:58:32;;;;;;;15.25;5.85;;;;;;;15.18;62.09;98672.72;5076192;28;20516;-49
2023/03/30 02:01:01;;;;;;;10.23;5.50;;;;;;;15.17;61.45;98649.97;5075958;28;20521;-49
2023/03/30 02:03:31;;;;;;;11.90;4.43;;;;;;;15.10;61.89;98651.94;5076108;28;20066;-49
2023/03/30 02:06:03;;;;;;;11.93;4.30;;;;;;;15.12;61.89;98634.00;5075978;28;20516;-49
2023/03/30 02:08:32;;;;;;;15.73;3.85;;;;;;;15.21;61.44;98623.88;5094196;28;20024;-49
2023/03/30 02:10:58;;;;;;;9.18;3.67;;;;;;;15.22;61.08;98622.84;5093979;28;20052;-49
2023/03/30 02:13:27;;;;;;;13.23;4.05;;;;;;;15.13;61.23;98638.25;5075818;28;20040;-49
2023/03/30 02:15:58;;;;;;;9.85;3.38;;;;;;;15.23;60.95;98658.81;5075679;28;20020;-49
2023/03/30 02:18:24;;;;;;;12.00;4.53;;;;;;;15.08;61.35;98652.16;5093933;28;20085;-49
2023/03/30 02:20:50;;;;;;;9.70;3.63;;;;;;;15.10;60.61;98622.84;5075664;28;20024;-49
2023/03/30 02:23:21;;;;;;;12.00;3.65;;;;;;;14.96;61.43;98648.72;5075609;28;20034;-48
2023/03/30 02:25:47;;;;;;;15.10;3.78;;;;;;;15.00;60.91;98667.56;5093802;28;20089;-49
2023/03/30 02:28:13;;;;;;;13.07;3.78;;;;;;;14.96;61.07;98640.78;5075531;28;20445;-48
2023/03/30 02:30:42;;;;;;;9.25;3.40;;;;;;;15.01;61.05;98640.09;5075493;28;20020;-48
2023/03/30 02:33:21;;;;;;;16.45;4.05;;;;;;;15.01;60.58;98634.81;5093818;28;20023;-49
2023/03/30 02:36:13;;;;;;;10.20;3.08;;;;;;;14.96;60.26;98630.22;5093610;28;20172;-49
2023/03/30 02:38:53;;;;;;;15.00;4.03;;;;;;;14.97;60.46;98637.13;5093532;28;20093;-49
2023/03/30 02:41:27;;;;;;;11.35;3.75;;;;;;;15.13;59.68;98620.56;5075176;28;20032;-49
2023/03/30 02:44:14;;;;;;;10.82;3.70;;;;;;;15.09;59.71;98647.66;5075493;28;20032;-49
2023/03/30 02:46:55;;;;;;;11.68;4.03;;;;;;;15.08;59.31;98630.22;5075088;28;20027;-49
2023/03/30 02:49:42;;;;;;;7.70;2.90;;;;;;;15.15;58.93;98629.06;5093435;28;20051;-49
2023/03/30 02:53:03;;;;;;;11.70;2.78;;;;;;;15.16;58.48;98635.94;5075103;28;20028;-48
2023/03/30 02:55:48;;;;;;;6.28;3.15;;;;;;;15.02;58.36;98617.91;5060618;28;20501;-49
2023/03/30 02:58:22;;;;;;;;;;;;;;;14.92;58.27;98618.50;5074740;28;20163;-49
2023/03/30 03:00:56;;;;;;;10.07;3.00;;;;;;;14.75;58.94;98594.63;5093079;28;19916;-49
2023/03/30 03:03:47;;;;;;;9.20;2.30;;;;;;;14.70;58.95;98610.34;5074940;28;20028;-49
2023/03/30 03:06:14;;;;;;;7.88;2.67;;;;;;;14.74;58.29;98609.63;5065336;28;20046;-49
2023/03/30 03:08:43;;;;;;;7.13;2.13;;;;;;;14.74;58.49;98614.13;5074663;28;20016;-49
2023/03/30 03:11:09;;;;;;;6.22;1.95;;;;;;;14.78;57.87;98594.13;5074496;28;20039;-49
2023/03/30 03:13:36;;;;;;;7.80;2.10;;;;;;;14.90;57.31;98610.78;5092306;28;20073;-48
2023/03/30 03:16:04;;;;;;;8.15;3.22;;;;;;;14.92;56.91;98606.09;5092780;28;20024;-48
2023/03/30 03:18:30;;;;;;;4.53;1.60;;;;;;;14.85;57.12;98600.13;5074432;28;20032;-48
2023/03/30 03:20:56;;;;;;;7.57;2.17;;;;;;;14.82;56.27;98605.84;5074427;28;20093;-49
2023/03/30 03:23:22;;;;;;;8.13;1.90;;;;;;;14.60;57.34;98591.59;5092620;28;20049;-48
2023/03/30 03:25:48;;;;;;;6.72;1.77;;;;;;;14.62;56.83;98573.69;5092625;28;20047;-49
2023/03/30 03:28:14;;;;;;;6.72;1.48;;;;;;;14.72;56.59;98584.50;5092520;28;20055;-48
2023/03/30 03:30:40;;;;;;;11.52;2.28;;;;;;;14.79;55.96;98571.97;5074207;28;20038;-49
2023/03/30 03:33:06;;;;;;;9.98;1.60;;;;;;;14.73;56.18;98572.91;5074568;28;20074;-49
2023/03/30 03:35:32;;;;;;;3.28;1.25;;;;;;;14.77;55.51;98552.91;5092386;28;20028;-49
2023/03/30 03:37:59;;;;;;;4.40;1.35;;;;;;;14.78;55.06;98539.47;5092412;28;20111;-48
2023/03/30 03:40:25;;;;;;;7.05;1.80;;;;;;;14.80;54.95;98557.72;5074138;28;20400;-48
2023/03/30 03:42:50;;;;;;;3.75;1.35;;;;;;;14.83;54.59;98474.53;5057594;28;20024;-49
2023/03/30 03:45:16;;;;;;;3.20;1.20;;;;;;;14.77;54.36;98540.50;5074167;28;20555;-49
2023/03/30 03:47:42;;;;;;;13.15;1.95;;;;;;;14.76;53.82;98524.88;5074135;28;20020;-49
2023/03/30 03:50:08;;;;;;;8.63;1.65;;;;;;;14.64;54.08;98469.41;5073896;28;20082;-49
2023/03/30 03:52:35;;;;;;;4.10;1.67;;;;;;;14.63;53.66;98531.22;5092261;28;20095;-49
2023/03/30 03:55:03;;;;;;;7.20;1.55;;;;;;;14.55;53.81;98529.69;5091965;28;20479;-49
2023/03/30 03:57:28;;;;;;;7.68;2.00;;;;;;;14.55;54.19;98547.38;5092179;28;20016;-49
2023/03/30 03:59:56;;;;;;;6.82;2.33;;;;;;;14.61;54.11;98561.50;5092101;28;20089;-50
2023/03/30 04:02:22;;;;;;;6.07;1.50;;;;;;;14.74;52.93;98556.81;5092102;28;20029;-49
2023/03/30 04:04:48;;;;;;;6.07;1.45;;;;;;;14.75;52.60;98547.06;5092102;28;20057;-49
2023/03/30 04:07:13;;;;;;;5.35;1.30;;;;;;;14.70;52.57;98523.16;5092075;28;20028;-49
2023/03/30 04:09:39;;;;;;;7.72;1.75;;;;;;;14.65;52.54;98505.38;5091947;28;20025;-49
2023/03/30 04:12:05;;;;;;;7.00;1.30;;;;;;;14.62;52.25;98503.19;5091924;28;20027;-49
2023/03/30 04:14:30;;;;;;;8.60;1.70;;;;;;;14.62;51.88;98491.81;5073768;28;20032;-49
2023/03/30 04:16:56;;;;;;;3.63;1.00;;;;;;;14.53;52.18;98537.03;5073709;28;20402;-49
2023/03/30 04:19:26;;;;;;;5.25;1.60;;;;;;;14.56;52.08;98490.91;5092110;28;20397;-49
2023/03/30 04:21:54;;;;;;;9.25;1.98;;;;;;;14.55;51.78;98519.13;5091959;28;20081;-49
2023/03/30 04:24:21;;;;;;;7.57;1.50;;;;;;;14.50;51.34;98558.59;5073977;28;20021;-48
2023/03/30 04:26:48;;;;;;;10.70;1.50;;;;;;;14.43;51.40;98565.03;5077052;28;20024;-49
2023/03/30 04:29:19;;;;;;;6.82;1.20;;;;;;;14.37;51.34;98553.56;5077741;28;20032;-48
2023/03/30 04:31:47;;;;;;;9.55;1.80;;;;;;;14.50;50.37;98555.97;5096255;28;20074;-49
2023/03/30 04:34:12;;;;;;;10.93;1.70;;;;;;;14.54;50.30;98559.75;5095912;28;20035;-49
2023/03/30 04:36:42;;;;;;;6.70;1.33;;;;;;;14.67;49.49;98547.38;5095883;28;20020;-49
2023/03/30 04:39:12;;;;;;;7.18;1.60;;;;;;;14.70;49.43;98539.00;5095736;28;20494;-49
2023/03/30 04:41:40;;;;;;;5.35;1.73;;;;;;;14.71;48.82;98527.44;5095711;28;20036;-49
2023/03/30 04:44:09;;;;;;;5.05;1.13;;;;;;;14.81;47.64;98543.50;5095746;28;20085;-49
2023/03/30 04:46:35;;;;;;;12.00;2.13;;;;;;;14.88;46.78;98504.53;5095912;28;20026;-49
2023/03/30 04:49:02;;;;;;;5.68;1.00;;;;;;;14.94;46.26;98494.88;5095575;28;20035;-49
2023/03/30 04:51:28;;;;;;;16.52;2.30;;;;;;;14.83;46.68;98512.38;5095596;28;20016;-49
2023/03/30 04:53:54;;;;;;;9.82;1.63;;;;;;;14.87;45.59;98513.50;5095340;28;20048;-49
2023/03/30 04:56:20;;;;;;;8.00;1.55;;;;;;;14.85;45.94;98498.91;5077245;28;20581;-48
2023/03/30 04:58:46;;;;;;;5.10;1.55;;;;;;;14.86;45.34;98461.69;5077206;28;20486;-49
2023/03/30 05:01:14;;;;;;;4.97;1.52;;;;;;;14.84;45.36;98497.31;5077577;28;20044;-49
2023/03/30 05:03:39;;;;;;;6.07;1.20;;;;;;;15.02;44.57;98509.56;5095304;28;20022;-49
2023/03/30 05:06:05;;;;;;;13.55;2.05;;;;;;;14.97;44.25;98502.34;5095180;28;20107;-49
2023/03/30 05:08:32;;;;;;;4.95;1.25;;;;;;;14.85;44.08;98489.16;5077061;28;20024;-49
2023/03/30 05:11:01;;;;;;;21.58;2.53;;;;;;;14.90;43.85;98538.66;5076910;28;20106;-48
2023/03/30 05:13:27;;;;;;;14.10;1.92;;;;;;;14.98;43.54;98515.31;5095181;28;20020;-49
2023/03/30 05:15:54;;;;;;;10.30;2.47;;;;;;;14.98;43.08;98594.59;5076901;28;20382;-49
2023/03/30 05:18:20;;;;;;;7.78;2.28;;;;;;;15.02;42.66;98658.38;5076856;28;20564;-49
2023/03/30 05:20:46;;;;;;;3.72;1.30;;;;;;;15.08;42.67;98735.94;5076815;28;20127;-49
2023/03/30 05:23:11;;;;;;;20.50;2.75;;;;;;;15.32;42.64;98777.22;5094861;28;20497;-48
2023/03/30 05:25:37;;;;;;;15.15;1.48;;;;;;;15.62;42.38;98784.25;5076722;28;20050;-48
2023/03/30 05:28:03;;;;;;;11.80;1.70;;;;;;;15.69;42.18;98811.38;5094894;28;20118;-48
2023/03/30 05:30:28;;;;;;;6.07;1.13;;;;;;;15.76;42.01;98784.84;5094704;28;20028;-48
2023/03/30 05:32:54;;;;;;;12.48;2.05;;;;;;;15.87;42.28;98789.31;5076884;28;20062;-49
2023/03/30 05:35:20;;;;;;;9.10;1.65;;;;;;;15.96;42.37;98787.13;5076850;28;20081;-49
2023/03/30 05:37:48;;;;;;;12.75;2.03;;;;;;;16.12;42.50;98764.44;5075981;28;20063;-49
2023/03/30 05:40:14;;;;;;;8.77;1.70;;;;;;;16.21;41.53;98794.00;5076392;28;20491;-49
2023/03/30 05:42:40;;;;;;;9.98;2.20;;;;;;;16.33;40.98;98800.06;5094560;28;20031;-49
2023/03/30 05:45:07;;;;;;;9.15;1.95;;;;;;;16.38;40.75;98786.94;5076256;28;20027;-50
2023/03/30 05:47:34;;;;;;;7.85;1.92;;;;;;;16.51;40.79;98786.63;5076311;28;20078;-49
2023/03/30 05:50:01;;;;;;;4.60;1.23;;;;;;;16.61;39.98;98785.22;5094766;28;20118;-49
2023/03/30 05:52:27;;;;;;;4.75;1.20;;;;;;;16.58;39.27;98789.97;5076275;28;20066;-49
2023/03/30 05:54:53;;;;;;;4.57;1.13;;;;;;;16.51;39.18;98781.34;5094101;28;20040;-49
2023/03/30 05:57:18;;;;;;;6.18;1.23;;;;;;;16.41;38.77;98775.84;5076268;28;20038;-49
2023/03/30 05:59:44;;;;;;;7.72;1.30;;;;;;;16.20;38.70;98771.19;5094321;28;20016;-49
2023/03/30 06:02:11;;;;;;;5.35;1.15;;;;;;;16.13;38.08;98789.84;5094260;28;20392;-49
2023/03/30 06:04:38;;;;;;;4.85;1.33;;;;;;;16.00;38.87;98785.63;5094263;28;20020;-49
2023/03/30 06:07:04;;;;;;;6.90;1.30;;;;;;;15.93;38.80;98795.53;5075958;28;20111;-49
2023/03/30 06:09:29;;;;;;;5.88;1.02;;;;;;;15.94;38.67;98791.88;5093990;28;20458;-49
2023/03/30 06:11:56;;;;;;;3.60;1.10;;;;;;;15.96;38.52;98781.84;5093980;28;20024;-49
2023/03/30 06:14:22;;;;;;;5.55;1.50;;;;;;;15.90;38.38;98754.47;5094000;28;20028;-49
2023/03/30 06:16:47;;;;;;;2.60;1.27;;;;;;;15.90;38.49;98741.22;5075725;28;20119;-49
2023/03/30 06:19:13;;;;;;;7.65;1.33;;;;;;;15.84;38.76;98796.94;5093874;28;20031;-49
2023/03/30 06:21:39;;;;;;;5.53;1.10;;;;;;;15.81;38.57;98792.91;5093820;28;20024;-48
2023/03/30 06:24:05;;;;;;;7.13;1.38;;;;;;;15.85;38.56;98758.84;5075563;28;20077;-49
2023/03/30 06:26:31;;;;;;;11.70;2.42;;;;;;;15.91;38.63;98697.81;5093770;28;20020;-49
2023/03/30 06:28:56;;;;;;;22.63;1.88;;;;;;;15.86;38.26;98737.44;5075444;28;20084;-48
2023/03/30 06:31:23;;;;;;;4.63;1.10;;;;;;;15.91;38.90;98748.13;5093651;28;20043;-48
2023/03/30 06:33:50;;;;;;;5.45;1.27;;;;;;;15.83;39.48;98751.13;5075428;28;20020;-49
2023/03/30 06:36:15;;;;;;;8.27;1.50;;;;;;;15.77;39.76;98758.19;5093552;28;20103;-49
2023/03/30 06:38:44;;;;;;;4.13;1.05;;;;;;;15.88;39.58;98759.19;5093524;28;20600;-49
2023/03/30 06:41:11;;;;;;;9.48;2.33;;;;;;;15.92;39.98;98768.25;5093354;28;20042;-49
2023/03/30 06:43:37;;;;;;;2.33;0.85;;;;;;;15.89;40.12;98778.50;5075515;28;20020;-48
2023/03/30 06:46:04;;;;;;;5.53;1.38;;;;;;;15.86;40.47;98781.63;5093394;28;20054;-49
2023/03/30 06:48:29;;;;;;;3.92;1.30;;;;;;;15.85;40.85;98809.13;5092438;28;20073;-49
2023/03/30 06:50:55;;;;;;;7.60;1.38;;;;;;;15.75;41.27;98731.13;5093134;28;20474;-49
2023/03/30 06:53:22;;;;;;;6.85;1.52;;;;;;;15.63;41.91;98774.47;5075075;28;20138;-49
2023/03/30 06:55:56;;;;;;;4.60;1.40;;;;;;;15.74;42.26;98740.09;5074797;28;20044;-49
2023/03/30 06:58:23;;;;;;;8.18;1.67;;;;;;;15.73;42.26;98778.16;5093492;28;20119;-49
2023/03/30 07:00:49;;;;;;;4.03;1.13;;;;;;;15.77;41.95;98760.81;5093110;28;20501;-49
2023/03/30 07:03:19;;;;;;;6.93;1.67;;;;;;;15.86;42.22;98763.09;5074929;28;20524;-49
2023/03/30 07:05:49;;;;;;;15.73;2.95;;;;;;;15.83;42.66;98795.31;5074764;28;20081;-48
2023/03/30 07:08:16;;;;;;;6.30;1.65;;;;;;;15.87;42.24;98804.41;5093171;28;20470;-49
2023/03/30 07:10:42;;;;;;;8.85;1.58;;;;;;;15.89;42.49;98767.91;5092823;28;20120;-48
2023/03/30 07:13:08;;;;;;;7.07;1.60;;;;;;;15.89;43.70;98787.25;5074647;28;20082;-49
2023/03/30 07:15:34;;;;;;;7.47;1.25;;;;;;;15.85;44.38;98788.75;5092748;28;20023;-49
2023/03/30 07:18:00;;;;;;;6.25;1.35;;;;;;;15.88;43.78;98819.25;5074568;28;20024;-49
2023/03/30 07:20:26;;;;;;;10.20;2.00;;;;;;;15.89;45.11;98802.31;5074586;28;20024;-48
2023/03/30 07:22:52;;;;;;;6.93;1.38;;;;;;;15.96;43.45;98810.97;5092753;28;20032;-49
2023/03/30 07:25:17;;;;;;;4.53;1.40;;;;;;;16.06;45.90;98827.06;5074356;28;20077;-48
2023/03/30 07:27:43;;;;;;;4.68;1.67;;;;;;;16.21;43.59;98836.34;5092497;28;20043;-49
2023/03/30 07:30:10;;;;;;;7.45;1.85;;;;;;;16.71;42.04;98796.81;5092459;28;20430;-49
2023/03/30 07:32:36;;;;;;;5.65;1.40;;;;;;;17.48;40.17;98819.31;5092471;28;20111;-48
2023/03/30 07:35:03;;;;;;;10.05;2.30;;;;;;;17.87;39.15;98792.84;5092408;28;20095;-48
2023/03/30 07:37:29;;;;;;;7.03;1.73;;;;;;;17.53;39.25;98832.69;5092430;28;20039;-48
2023/03/30 07:39:55;;;;;;;11.20;2.33;;;;;;;17.30;40.20;98832.84;5074181;28;20021;-49
2023/03/30 07:42:21;;;;;;;5.53;1.70;;;;;;;17.06;40.26;98837.47;5092231;28;20024;-49
2023/03/30 07:44:47;;;;;;;6.70;1.55;;;;;;;16.79;41.33;98867.19;5092297;28;20077;-49
2023/03/30 07:47:13;;;;;;;6.72;1.77;;;;;;;16.63;41.59;98868.72;5092277;28;20066;-49
2023/03/30 07:49:38;;;;;;;7.57;1.25;;;;;;;16.42;41.86;98851.63;5092109;28;20047;-49
2023/03/30 07:52:06;;;;;;;7.05;1.52;;;;;;;16.27;42.56;98846.03;5073971;28;20051;-49
2023/03/30 07:54:31;;;;;;;8.00;1.65;;;;;;;16.43;41.88;98834.69;5091918;28;20044;-49
2023/03/30 07:56:57;;;;;;;6.10;1.50;;;;;;;16.48;42.07;98850.69;5092102;28;20432;-49
2023/03/30 07:59:23;;;;;;;7.82;1.52;;;;;;;16.83;41.69;98838.41;5091849;28;20112;-49
2023/03/30 08:01:50;;;;;;;6.70;1.73;;;;;;;17.70;42.09;98861.06;5092046;28;20024;-49
2023/03/30 08:04:17;;;;;;;9.02;2.22;;;;;;;18.20;40.33;98775.19;5073903;28;20127;-48
2023/03/30 08:06:43;;;;;;;5.82;1.60;;;;;;;18.11;40.33;98835.09;5073764;28;20025;-48
2023/03/30 08:09:09;;;;;;;5.18;1.58;;;;;;;18.03;41.53;98832.88;5073848;28;20073;-49
2023/03/30 08:11:35;;;;;;;11.85;2.10;;;;;;;18.77;39.64;98827.94;5091846;28;20032;-49
2023/03/30 08:14:02;;;;;;;10.93;2.00;;;;;;;19.38;38.71;98831.41;5091897;28;20089;-49
2023/03/30 08:16:28;;;;;;;9.82;2.67;;;;;;;19.26;37.30;98888.28;5073703;28;20024;-46
2023/03/30 08:18:54;;;;;;;9.20;1.92;;;;;;;18.51;38.38;98874.69;5092124;28;20028;-47
2023/03/30 08:21:22;;;;;;;10.18;3.45;;;;;;;17.92;40.38;98874.44;5091708;28;20428;-47
2023/03/30 08:23:48;;;;;;;7.45;1.88;;;;;;;17.47;40.57;98883.28;5091791;28;20024;-47
2023/03/30 08:26:13;;;;;;;12.98;2.70;;;;;;;17.21;42.93;98872.22;5091739;28;20027;-47
2023/03/30 08:28:39;;;;;;;8.85;1.80;;;;;;;17.17;41.94;98882.50;5092006;28;20082;-48
2023/03/30 08:31:06;;;;;;;4.68;1.60;;;;;;;17.13;41.75;98889.31;5073480;28;20032;-49
2023/03/30 08:33:32;;;;;;;8.10;2.58;;;;;;;17.34;41.93;98911.72;5056865;28;20393;-49
2023/03/30 08:35:58;;;;;;;9.00;2.75;;;;;;;17.78;41.40;98895.97;5091673;28;20025;-49
2023/03/30 08:38:24;;;;;;;3.65;1.27;;;;;;;17.80;40.72;98882.44;5091574;28;20110;-49
2023/03/30 08:40:50;;;;;;;5.22;1.98;;;;;;;18.01;40.89;98894.22;5091614;28;20070;-49
2023/03/30 08:43:40;;;;;;;6.95;1.80;;;;;;;18.73;39.79;98868.53;5073516;28;20024;-48
2023/03/30 08:46:11;;;;;;;9.43;2.03;;;;;;;19.93;37.47;98851.53;5091568;28;20048;-47
2023/03/30 08:48:38;;;;;;;7.28;1.50;;;;;;;19.85;36.58;98862.69;5091703;28;20028;-47
2023/03/30 08:51:25;;;;;;;8.52;2.20;;;;;;;19.44;37.32;98889.78;5091350;28;20024;-46
2023/03/30 08:53:57;;;;;;;6.18;2.08;;;;;;;18.83;38.04;98828.81;5073148;28;20110;-48
2023/03/30 08:56:28;;;;;;;13.18;2.30;;;;;;;18.49;39.65;98878.63;5091578;28;20055;-47
2023/03/30 08:59:22;;;;;;;7.75;2.03;;;;;;;18.95;39.00;98880.00;5091529;28;20032;-47
2023/03/30 09:01:56;;;;;;;9.38;1.92;;;;;;;18.84;38.54;98851.69;5091474;28;20031;-47
2023/03/30 09:04:27;;;;;;;5.65;1.88;;;;;;;18.69;39.56;98880.72;5091558;28;20020;-46
2023/03/30 09:07:07;;;;;;;8.68;2.17;;;;;;;19.18;38.11;98866.66;5073157;28;20115;-47
2023/03/30 09:09:44;;;;;;;5.00;1.55;;;;;;;20.08;37.43;98886.28;5073277;28;20032;-47
2023/03/30 09:12:36;;;;;;;6.47;1.90;;;;;;;20.17;36.29;98875.94;5093460;28;20048;-47
2023/03/30 09:15:30;;;;;;;7.78;2.20;;;;;;;20.29;36.30;98913.84;5095309;28;20028;-47
2023/03/30 09:18:06;;;;;;;5.80;1.70;;;;;;;19.99;36.32;98861.16;5077418;28;20039;-47
2023/03/30 09:20:36;;;;;;;3.33;1.17;;;;;;;19.60;37.26;98893.38;5095097;28;20401;-47
2023/03/30 09:23:03;;;;;;;4.28;1.30;;;;;;;19.43;37.21;98896.16;5095145;28;20027;-47
2023/03/30 09:25:41;;;;;;;7.50;1.85;;;;;;;19.62;37.74;98893.91;5094891;28;20040;-47
2023/03/30 09:28:23;;;;;;;8.57;1.85;;;;;;;20.17;37.16;98896.44;5094938;28;20032;-47
2023/03/30 09:30:59;;;;;;;10.45;2.15;;;;;;;20.25;36.48;98898.63;5076587;28;20028;-47
2023/03/30 09:33:38;;;;;;;5.55;1.60;;;;;;;20.81;35.48;98906.09;5076702;28;20080;-47
2023/03/30 09:36:14;;;;;;;12.48;2.08;;;;;;;21.38;33.89;98894.47;5094813;28;20102;-47
2023/03/30 09:38:41;;;;;;;6.32;1.58;;;;;;;21.14;34.63;98921.66;5094718;28;20028;-47
2023/03/30 09:41:47;;;;;;;8.85;1.63;;;;;;;20.84;35.16;98903.69;5094895;28;20043;-47
2023/03/30 09:44:22;;;;;;;10.30;1.73;;;;;;;20.92;34.89;98895.19;5094588;28;20532;-47
2023/03/30 09:46:50;;;;;;;9.02;1.90;;;;;;;20.65;34.75;98931.91;5094524;28;20032;-47
2023/03/30 09:49:16;;;;;;;7.93;2.08;;;;;;;20.39;35.82;98913.09;5094354;28;20028;-46
2023/03/30 09:52:00;;;;;;;8.13;1.88;;;;;;;20.26;35.35;98941.03;5094690;28;20032;-47
2023/03/30 09:54:35;;;;;;;7.53;1.65;;;;;;;19.76;35.93;98857.03;5094253;28;20127;-47
2023/03/30 09:57:01;;;;;;;5.03;1.48;;;;;;;19.52;37.14;98921.25;5094286;28;20116;-47
2023/03/30 09:59:26;;;;;;;7.20;1.67;;;;;;;19.43;37.24;98913.97;5076119;28;20116;-47
2023/03/30 10:01:52;;;;;;;10.27;2.55;;;;;;;19.27;37.53;98921.81;5094241;28;20058;-47
2023/03/30 10:04:18;;;;;;;5.70;2.08;;;;;;;18.99;38.07;98909.53;5094146;28;20081;-47
2023/03/30 10:06:49;;;;;;;7.50;1.80;;;;;;;18.88;39.16;98913.97;5075889;28;20016;-47
2023/03/30 10:09:20;;;;;;;12.32;2.60;;;;;;;19.02;39.14;98948.16;5094005;28;20074;-47
2023/03/30 10:11:51;;;;;;;8.63;1.45;;;;;;;19.01;38.36;98918.09;5093996;28;20028;-47
2023/03/30 10:14:23;;;;;;;8.38;2.20;;;;;;;19.11;38.30;98912.88;5094009;28;20048;-47
2023/03/30 10:16:49;;;;;;;6.22;1.38;;;;;;;19.10;37.89;98924.56;5075926;28;20066;-47
2023/03/30 10:19:17;;;;;;;8.18;1.80;;;;;;;19.24;38.80;98909.03;5075702;28;20545;-46
2023/03/30 10:21:47;;;;;;;5.47;1.58;;;;;;;19.41;37.90;98948.03;5093845;28;20065;-47
2023/03/30 10:24:12;;;;;;;4.03;1.25;;;;;;;19.44;37.77;98964.31;5093798;28;20024;-47
2023/03/30 10:26:43;;;;;;;8.43;1.90;;;;;;;19.39;37.65;98945.59;5093729;28;20039;-47
2023/03/30 10:29:17;;;;;;;5.18;1.70;;;;;;;19.31;37.81;98952.19;5093566;28;20049;-47
2023/03/30 10:31:47;;;;;;;6.35;1.48;;;;;;;19.28;37.95;98936.72;5093603;28;20028;-47
2023/03/30 10:34:22;;;;;;;4.68;1.60;;;;;;;19.27;37.59;98950.28;5093615;28;20055;-47
2023/03/30 10:36:52;;;;;;;;;;;;;;;19.29;37.47;98948.97;5093989;28;20028;-47
2023/03/30 10:39:31;;;;;;;4.93;1.63;;;;;;;19.73;38.09;98924.91;5093425;28;19912;-47
2023/03/30 10:42:00;;;;;;;6.35;2.42;;;;;;;20.54;37.29;98904.34;5075204;28;20076;-47
2023/03/30 10:44:32;;;;;;;5.28;1.60;;;;;;;21.20;35.98;98908.31;5093320;28;20069;-47
2023/03/30 10:47:42;;;;;;;6.05;1.60;;;;;;;21.86;34.63;98895.03;5075173;28;20517;-47
2023/03/30 10:50:31;;;;;;;4.35;1.60;;;;;;;22.59;33.86;98912.50;5093271;28;20024;-47
2023/03/30 10:52:59;;;;;;;4.13;1.70;;;;;;;22.90;32.37;98875.72;5093351;28;20024;-47
2023/03/30 10:55:40;;;;;;;8.20;1.80;;;;;;;22.83;32.75;98879.75;5092982;28;20052;-47
2023/03/30 10:58:44;;;;;;;6.72;1.48;;;;;;;22.31;33.62;98905.91;5074969;28;20035;-47
2023/03/30 11:01:22;;;;;;;5.70;1.73;;;;;;;21.97;33.76;98903.00;5061276;28;20032;-47
2023/03/30 11:03:56;;;;;;;5.43;1.60;;;;;;;21.57;34.65;98891.28;5093087;28;20024;-47
2023/03/30 11:06:37;;;;;;;11.32;1.67;;;;;;;21.06;35.56;98932.03;5092942;28;20078;-47
2023/03/30 11:09:07;;;;;;;5.28;1.58;;;;;;;20.73;36.21;98945.53;5093041;28;20374;-47
2023/03/30 11:11:47;;;;;;;10.40;1.95;;;;;;;20.54;37.34;98923.03;5074727;28;20028;-46
2023/03/30 11:14:50;;;;;;;5.25;1.52;;;;;;;20.71;36.87;98928.22;5074736;28;20488;-46
2023/03/30 11:17:25;;;;;;;6.20;1.67;;;;;;;20.76;36.80;98928.22;5074666;28;20400;-47
2023/03/30 11:19:55;;;;;;;10.25;1.75;;;;;;;20.69;36.93;98911.66;5092814;28;20031;-47
2023/03/30 11:22:37;;;;;;;7.53;2.00;;;;;;;20.62;37.39;98895.09;5092655;28;20059;-47
2023/03/30 11:25:16;;;;;;;8.68;2.40;;;;;;;20.66;37.20;98890.84;5092697;28;20024;-47
2023/03/30 11:27:58;;;;;;;9.18;1.95;;;;;;;20.81;37.28;98908.78;5092532;28;20031;-47
2023/03/30 11:30:32;;;;;;;7.15;2.03;;;;;;;21.15;36.98;98895.78;5092578;28;20024;-47
2023/03/30 11:33:01;;;;;;;8.43;2.33;;;;;;;21.54;36.49;98897.97;5074403;28;20122;-47
2023/03/30 11:35:49;;;;;;;12.23;2.20;;;;;;;21.99;35.42;98890.97;5091968;28;20273;-47
2023/03/30 11:38:53;;;;;;;4.85;2.38;;;;;;;22.59;34.65;98884.97;5092725;28;20378;-47
2023/03/30 11:41:27;;;;;;;6.75;1.85;;;;;;;22.83;34.07;98887.78;5092260;28;20103;-47
2023/03/30 11:43:54;;;;;;;9.80;1.80;;;;;;;22.75;34.68;98913.25;5092365;28;20114;-47
2023/03/30 11:46:27;;;;;;;12.65;3.63;;;;;;;22.39;34.65;98897.31;5092297;28;20032;-47
2023/03/30 11:49:11;;;;;;;6.18;1.83;;;;;;;21.59;35.83;98914.00;5074183;28;20055;-47